Annandale, NJ

3:03 AM EDT on October 24, 2014 (GMT -0400)
Regional Road | Change Station
CLOSE
Current Station
Personal Weather Station
Location: Annandale, NJ
Elevation: 387 ft
Nearby Weather Stations

Elev 387 ft 40.63 °N, 74.89 °W | Updated 2 minutes ago

Overcast
Overcast
50.6 °F
Feels Like 50.6 °F
N
0.0
Wind Variable Wind from NNW
Gusts 0.0 mph

Today
High -- | Low -- °F
--% Chance of Precip.
Yesterday
High -- | Low -- °F
Precip. -- in
7:20 AM 6:06 PM
New Moon, 0% visible
Pressure 29.79 in
Visibility 10.0 miles
Clouds Overcast 6000 ft
Dew Point 46 °F
Humidity 85%
Rainfall 0.00 in
Snow Depth Not available.
UV 0 out of 12
Pollen .10 out of 12
Air Quality Not available.
Flu Activity Not available.
METAR KSMQ 240653Z AUTO 32009KT 10SM OVC060 11/06 A2979 RMK AO2 SLP088 T01110056

More Conditions Fewer Conditions

Pressure 29.79 in
Visibility 10.0 miles
Clouds Overcast 6000 ft
Dew Point 46 °F
Humidity 85%
Rainfall 0.00 in
Snow Depth Not available.
UV 0 out of 12
Pollen .10 out of 12
Air Quality Not available.
Flu Activity Not available.
METAR KSMQ 240653Z AUTO 32009KT 10SM OVC060 11/06 A2979 RMK AO2 SLP088 T01110056

More Conditions Fewer Conditions

10-Day Weather Forecast

Almanac

Astronomy

Oct. 24, 2014 Rise Set
Actual Time 7:20 AM EDT 6:06 PM EDT
Civil Twilight 6:52 AM EDT 6:34 PM EDT
Nautical Twilight 6:20 AM EDT 7:06 PM EDT
Astronomical Twilight 5:48 AM EDT 7:37 PM EDT
Moon 7:57 AM EDT 6:44 PM EDT
Length of Visible Light 11h 41m
Length of Day
10h 45m
Tomorrow will be 2m 30s shorter.
New Moon, 0% of the Moon is Illuminated
Today
New Moon
Oct 30
First Quarter
Nov 6
Full
Nov 14
Last Quarter
Nov 22
New

Today's Extremes

State Highs State Lows

Community

WunderPhotos

Upload Photos

1,764,510 photos uploaded!

WunderBlogs® & News

Nearby

Snow Depth

Station Depth Elevation
No new snow has been reported.

Earthquake Activity

City Distance Mag. Time & Date
No recent earthquake activity has been reported nearby.
Minimum magnitude displayed is 2.5.

Coastal Water Temperatures

Place Temperature
No Stations Reporting

Nearby Weather Stations